sensor_id;sensor_type;location;lat;lon;timestamp;pressure;altitude;pressure_sealevel;temperature;humidity
67099;BME280;54288;53.046;5.668;2023-05-21T00:01:45;102235.78;;;14.03;100.00
67099;BME280;54288;53.046;5.668;2023-05-21T00:04:13;102235.78;;;14.03;100.00
67099;BME280;54288;53.046;5.668;2023-05-21T00:06:40;102234.91;;;14.01;100.00
67099;BME280;54288;53.046;5.668;2023-05-21T00:09:05;102226.19;;;13.96;100.00
67099;BME280;54288;53.046;5.668;2023-05-21T00:11:32;102225.28;;;13.98;100.00
67099;BME280;54288;53.046;5.668;2023-05-21T00:13:57;102228.78;;;13.99;100.00
67099;BME280;54288;53.046;5.668;2023-05-21T00:16:24;102223.53;;;14.00;100.00
67099;BME280;54288;53.046;5.668;2023-05-21T00:18:50;102225.25;;;14.03;100.00
67099;BME280;54288;53.046;5.668;2023-05-21T00:21:16;102228.78;;;13.99;100.00
67099;BME280;54288;53.046;5.668;2023-05-21T00:23:43;102220.91;;;13.97;100.00
67099;BME280;54288;53.046;5.668;2023-05-21T00:26:09;102209.53;;;13.97;100.00
67099;BME280;54288;53.046;5.668;2023-05-21T00:28:35;102218.25;;;13.99;100.00
67099;BME280;54288;53.046;5.668;2023-05-21T00:31:01;102216.53;;;13.98;100.00
67099;BME280;54288;53.046;5.668;2023-05-21T00:33:26;102213.00;;;13.99;100.00
67099;BME280;54288;53.046;5.668;2023-05-21T00:35:54;102212.09;;;14.00;100.00
67099;BME280;54288;53.046;5.668;2023-05-21T00:38:20;102214.75;;;13.98;100.00
67099;BME280;54288;53.046;5.668;2023-05-21T00:40:46;102213.00;;;13.99;100.00
67099;BME280;54288;53.046;5.668;2023-05-21T00:43:12;102218.25;;;13.99;100.00
67099;BME280;54288;53.046;5.668;2023-05-21T00:45:41;102209.47;;;13.98;100.00
67099;BME280;54288;53.046;5.668;2023-05-21T00:48:09;102205.13;;;13.96;100.00
67099;BME280;54288;53.046;5.668;2023-05-21T00:50:35;102204.25;;;13.95;100.00
67099;BME280;54288;53.046;5.668;2023-05-21T00:53:05;102196.38;;;13.92;100.00
67099;BME280;54288;53.046;5.668;2023-05-21T00:55:37;102201.56;;;13.98;100.00
67099;BME280;54288;53.046;5.668;2023-05-21T00:58:03;102192.81;;;13.99;100.00
67099;BME280;54288;53.046;5.668;2023-05-21T01:00:33;102197.19;;;13.97;100.00
67099;BME280;54288;53.046;5.668;2023-05-21T01:03:00;102188.44;;;13.97;100.00
67099;BME280;54288;53.046;5.668;2023-05-21T01:05:27;102190.22;;;13.95;100.00
67099;BME280;54288;53.046;5.668;2023-05-21T01:07:55;102187.63;;;13.93;100.00
67099;BME280;54288;53.046;5.668;2023-05-21T01:10:23;102186.75;;;13.90;100.00
67099;BME280;54288;53.046;5.668;2023-05-21T01:12:51;102181.50;;;13.90;100.00
67099;BME280;54288;53.046;5.668;2023-05-21T01:15:19;102181.47;;;13.91;100.00
67099;BME280;54288;53.046;5.668;2023-05-21T01:17:45;102185.00;;;13.92;100.00
67099;BME280;54288;53.046;5.668;2023-05-21T01:20:18;102169.22;;;13.89;100.00
67099;BME280;54288;53.046;5.668;2023-05-21T01:22:54;102182.28;;;13.98;100.00
67099;BME280;54288;53.046;5.668;2023-05-21T01:25:23;102177.00;;;13.98;100.00
67099;BME280;54288;53.046;5.668;2023-05-21T01:27:49;102176.16;;;13.96;100.00
67099;BME280;54288;53.046;5.668;2023-05-21T01:30:20;102171.84;;;13.90;100.00
67099;BME280;54288;53.046;5.668;2023-05-21T01:33:11;102171.81;;;13.93;100.00
67099;BME280;54288;53.046;5.668;2023-05-21T01:40:59;102173.56;;;13.94;100.00
67099;BME280;54288;53.046;5.668;2023-05-21T01:43:32;102165.69;;;13.90;100.00
67099;BME280;54288;53.046;5.668;2023-05-21T01:45:59;102176.28;;;13.88;100.00
67099;BME280;54288;53.046;5.668;2023-05-21T01:48:27;102167.47;;;13.88;100.00
67099;BME280;54288;53.046;5.668;2023-05-21T01:50:57;102157.03;;;13.82;100.00
67099;BME280;54288;53.046;5.668;2023-05-21T01:53:24;102162.31;;;13.82;100.00
67099;BME280;54288;53.046;5.668;2023-05-21T01:55:50;102167.53;;;13.85;100.00
67099;BME280;54288;53.046;5.668;2023-05-21T01:58:16;102171.91;;;13.84;100.00
67099;BME280;54288;53.046;5.668;2023-05-21T02:00:43;102168.44;;;13.82;100.00
67099;BME280;54288;53.046;5.668;2023-05-21T02:03:10;102159.69;;;13.79;100.00
67099;BME280;54288;53.046;5.668;2023-05-21T02:05:36;102158.84;;;13.78;100.00
67099;BME280;54288;53.046;5.668;2023-05-21T02:08:02;102163.22;;;13.79;100.00
67099;BME280;54288;53.046;5.668;2023-05-21T02:10:28;102160.59;;;13.78;100.00
67099;BME280;54288;53.046;5.668;2023-05-21T02:12:53;102161.47;;;13.80;100.00
67099;BME280;54288;53.046;5.668;2023-05-21T02:15:19;102161.50;;;13.75;100.00
67099;BME280;54288;53.046;5.668;2023-05-21T02:17:45;102172.84;;;13.79;100.00
67099;BME280;54288;53.046;5.668;2023-05-21T02:20:12;102158.84;;;13.78;100.00
67099;BME280;54288;53.046;5.668;2023-05-21T02:22:40;102149.22;;;13.76;100.00
67099;BME280;54288;53.046;5.668;2023-05-21T02:25:07;102154.47;;;13.77;100.00
67099;BME280;54288;53.046;5.668;2023-05-21T02:27:34;102154.47;;;13.76;100.00
67099;BME280;54288;53.046;5.668;2023-05-21T02:30:03;102162.38;;;13.74;100.00
67099;BME280;54288;53.046;5.668;2023-05-21T02:32:29;102151.00;;;13.74;100.00
67099;BME280;54288;53.046;5.668;2023-05-21T02:34:57;102158.91;;;13.74;100.00
67099;BME280;54288;53.046;5.668;2023-05-21T02:37:24;102157.13;;;13.73;100.00
67099;BME280;54288;53.046;5.668;2023-05-21T02:39:53;102159.75;;;13.74;100.00
67099;BME280;54288;53.046;5.668;2023-05-21T02:42:20;102166.75;;;13.75;100.00
67099;BME280;54288;53.046;5.668;2023-05-21T02:44:45;102165.09;;;13.70;100.00
67099;BME280;54288;53.046;5.668;2023-05-21T02:47:30;102153.66;;;13.69;100.00
67099;BME280;54288;53.046;5.668;2023-05-21T02:49:58;102148.41;;;13.71;100.00
67099;BME280;54288;53.046;5.668;2023-05-21T02:52:25;102151.94;;;13.67;100.00
67099;BME280;54288;53.046;5.668;2023-05-21T02:54:51;102155.44;;;13.69;100.00
67099;BME280;54288;53.046;5.668;2023-05-21T02:57:17;102153.72;;;13.68;100.00
67099;BME280;54288;53.046;5.668;2023-05-21T02:59:43;102158.97;;;13.68;100.00
67099;BME280;54288;53.046;5.668;2023-05-21T03:02:10;102166.00;;;13.66;100.00
67099;BME280;54288;53.046;5.668;2023-05-21T03:04:36;102160.75;;;13.66;100.00
67099;BME280;54288;53.046;5.668;2023-05-21T03:07:04;102157.25;;;13.65;100.00
67099;BME280;54288;53.046;5.668;2023-05-21T03:09:30;102157.22;;;13.67;100.00
67099;BME280;54288;53.046;5.668;2023-05-21T03:11:56;102148.53;;;13.62;100.00
67099;BME280;54288;53.046;5.668;2023-05-21T03:14:22;102165.09;;;13.67;100.00
67099;BME280;54288;53.046;5.668;2023-05-21T03:16:49;102140.63;;;13.62;100.00
67099;BME280;54288;53.046;5.668;2023-05-21T03:19:16;102148.44;;;13.68;100.00
67099;BME280;54288;53.046;5.668;2023-05-21T03:21:43;102151.94;;;13.68;100.00
67099;BME280;54288;53.046;5.668;2023-05-21T03:24:09;102151.16;;;13.62;100.00
67099;BME280;54288;53.046;5.668;2023-05-21T03:26:34;102159.00;;;13.65;100.00
67099;BME280;54288;53.046;5.668;2023-05-21T03:29:00;102146.75;;;13.61;100.00
67099;BME280;54288;53.046;5.668;2023-05-21T03:31:27;102143.25;;;13.62;100.00
67099;BME280;54288;53.046;5.668;2023-05-21T03:34:03;102144.19;;;13.58;100.00
67099;BME280;54288;53.046;5.668;2023-05-21T03:36:30;102150.34;;;13.57;100.00
67099;BME280;54288;53.046;5.668;2023-05-21T03:38:56;102156.47;;;13.56;100.00
67099;BME280;54288;53.046;5.668;2023-05-21T03:41:23;102149.53;;;13.52;100.00
67099;BME280;54288;53.046;5.668;2023-05-21T03:43:54;102156.50;;;13.54;100.00
67099;BME280;54288;53.046;5.668;2023-05-21T03:46:23;102157.41;;;13.52;100.00
67099;BME280;54288;53.046;5.668;2023-05-21T03:49:05;102161.78;;;13.51;100.00
67099;BME280;54288;53.046;5.668;2023-05-21T03:51:33;102158.31;;;13.49;100.00
67099;BME280;54288;53.046;5.668;2023-05-21T03:53:58;102156.59;;;13.48;100.00
67099;BME280;54288;53.046;5.668;2023-05-21T03:56:25;102156.59;;;13.48;100.00
67099;BME280;54288;53.046;5.668;2023-05-21T03:58:51;102157.41;;;13.52;100.00
67099;BME280;54288;53.046;5.668;2023-05-21T04:01:18;102143.38;;;13.50;100.00
67099;BME280;54288;53.046;5.668;2023-05-21T04:03:45;102151.28;;;13.50;100.00
67099;BME280;54288;53.046;5.668;2023-05-21T04:06:12;102156.53;;;13.53;100.00
67099;BME280;54288;53.046;5.668;2023-05-21T04:08:39;102142.53;;;13.48;100.00
67099;BME280;54288;53.046;5.668;2023-05-21T04:11:04;102155.63;;;13.52;100.00
67099;BME280;54288;53.046;5.668;2023-05-21T04:13:30;102158.25;;;13.52;100.00
67099;BME280;54288;53.046;5.668;2023-05-21T04:15:56;102151.19;;;13.57;100.00
67099;BME280;54288;53.046;5.668;2023-05-21T04:18:22;102151.19;;;13.57;100.00
67099;BME280;54288;53.046;5.668;2023-05-21T04:20:51;102150.34;;;13.57;100.00
67099;BME280;54288;53.046;5.668;2023-05-21T04:23:17;102159.06;;;13.62;100.00
67099;BME280;54288;53.046;5.668;2023-05-21T04:25:43;102152.06;;;13.58;100.00
67099;BME280;54288;53.046;5.668;2023-05-21T04:28:09;102150.34;;;13.57;100.00
67099;BME280;54288;53.046;5.668;2023-05-21T04:30:35;102155.56;;;13.60;100.00
67099;BME280;54288;53.046;5.668;2023-05-21T04:33:02;102147.66;;;13.60;100.00
67099;BME280;54288;53.046;5.668;2023-05-21T04:35:28;102152.03;;;13.61;100.00
67099;BME280;54288;53.046;5.668;2023-05-21T04:37:54;102161.69;;;13.60;100.00
67099;BME280;54288;53.046;5.668;2023-05-21T04:40:20;102153.81;;;13.59;100.00
67099;BME280;54288;53.046;5.668;2023-05-21T04:42:49;102159.00;;;13.65;100.00
67099;BME280;54288;53.046;5.668;2023-05-21T04:45:16;102163.34;;;13.69;100.00
67099;BME280;54288;53.046;5.668;2023-05-21T04:47:44;102156.28;;;13.74;100.00
67099;BME280;54288;53.046;5.668;2023-05-21T04:50:10;102150.09;;;13.75;100.00
67099;BME280;54288;53.046;5.668;2023-05-21T04:52:37;102150.13;;;13.72;100.00
67099;BME280;54288;53.046;5.668;2023-05-21T04:55:08;102152.75;;;13.75;100.00
67099;BME280;54288;53.046;5.668;2023-05-21T04:57:34;102146.66;;;13.71;100.00
67099;BME280;54288;53.046;5.668;2023-05-21T05:00:00;102158.00;;;13.76;100.00
67099;BME280;54288;53.046;5.668;2023-05-21T05:02:30;102155.41;;;13.72;100.00
67099;BME280;54288;53.046;5.668;2023-05-21T05:04:56;102159.75;;;13.76;100.00
67099;BME280;54288;53.046;5.668;2023-05-21T05:07:21;102154.41;;;13.79;100.00
67099;BME280;54288;53.046;5.668;2023-05-21T05:09:47;102159.69;;;13.80;100.00
67099;BME280;54288;53.046;5.668;2023-05-21T05:12:13;102156.22;;;13.77;100.00
67099;BME280;54288;53.046;5.668;2023-05-21T05:14:38;102151.75;;;13.82;100.00
67099;BME280;54288;53.046;5.668;2023-05-21T05:17:04;102153.50;;;13.83;100.00
67099;BME280;54288;53.046;5.668;2023-05-21T05:19:32;102156.13;;;13.84;100.00
67099;BME280;54288;53.046;5.668;2023-05-21T05:21:59;102150.94;;;13.80;100.00
67099;BME280;54288;53.046;5.668;2023-05-21T05:24:25;102152.59;;;13.85;100.00
67099;BME280;54288;53.046;5.668;2023-05-21T05:26:51;102140.44;;;13.75;100.00
67099;BME280;54288;53.046;5.668;2023-05-21T05:29:17;102155.28;;;13.81;100.00
67099;BME280;54288;53.046;5.668;2023-05-21T05:31:43;102154.31;;;13.88;100.00
67099;BME280;54288;53.046;5.668;2023-05-21T05:34:08;102150.75;;;13.93;100.00
67099;BME280;54288;53.046;5.668;2023-05-21T05:36:34;102147.25;;;13.91;100.00
67099;BME280;54288;53.046;5.668;2023-05-21T05:39:01;102137.59;;;13.92;100.00
67099;BME280;54288;53.046;5.668;2023-05-21T05:41:27;102140.25;;;13.90;100.00
67099;BME280;54288;53.046;5.668;2023-05-21T05:43:54;102136.63;;;13.99;100.00
67099;BME280;54288;53.046;5.668;2023-05-21T05:46:21;102140.09;;;14.01;100.00
67099;BME280;54288;53.046;5.668;2023-05-21T05:48:47;102140.06;;;14.02;100.00
67099;BME280;54288;53.046;5.668;2023-05-21T05:51:13;102147.97;;;14.01;100.00
67099;BME280;54288;53.046;5.668;2023-05-21T05:53:39;102138.41;;;13.95;100.00
67099;BME280;54288;53.046;5.668;2023-05-21T05:56:06;102136.69;;;13.94;100.00
67099;BME280;54288;53.046;5.668;2023-05-21T05:58:31;102142.84;;;13.92;100.00
67099;BME280;54288;53.046;5.668;2023-05-21T06:01:09;102139.34;;;13.91;100.00
67099;BME280;54288;53.046;5.668;2023-05-21T06:03:36;102131.41;;;13.94;100.00
67099;BME280;54288;53.046;5.668;2023-05-21T06:06:09;102137.50;;;13.98;100.00
67099;BME280;54288;53.046;5.668;2023-05-21T06:08:36;102134.81;;;14.01;100.00
67099;BME280;54288;53.046;5.668;2023-05-21T06:11:02;102128.59;;;14.08;100.00
67099;BME280;54288;53.046;5.668;2023-05-21T06:13:27;102135.59;;;14.09;100.00
67099;BME280;54288;53.046;5.668;2023-05-21T06:15:53;102138.16;;;14.15;100.00
67099;BME280;54288;53.046;5.668;2023-05-21T06:18:19;102134.59;;;14.17;100.00
67099;BME280;54288;53.046;5.668;2023-05-21T06:20:45;102138.06;;;14.18;100.00
67099;BME280;54288;53.046;5.668;2023-05-21T06:23:11;102131.06;;;14.18;100.00
67099;BME280;54288;53.046;5.668;2023-05-21T06:25:37;102132.66;;;14.30;100.00
67099;BME280;54288;53.046;5.668;2023-05-21T06:28:05;102121.28;;;14.28;100.00
67099;BME280;54288;53.046;5.668;2023-05-21T06:30:32;102121.19;;;14.34;100.00
67099;BME280;54288;53.046;5.668;2023-05-21T06:32:58;102129.69;;;14.51;100.00
67099;BME280;54288;53.046;5.668;2023-05-21T06:35:24;102118.31;;;14.50;100.00
67099;BME280;54288;53.046;5.668;2023-05-21T06:37:50;102127.88;;;14.56;100.00
67099;BME280;54288;53.046;5.668;2023-05-21T06:40:15;102123.44;;;14.58;100.00
67099;BME280;54288;53.046;5.668;2023-05-21T06:42:41;102120.72;;;14.62;100.00
67099;BME280;54288;53.046;5.668;2023-05-21T06:45:27;102109.09;;;14.72;100.00
67099;BME280;54288;53.046;5.668;2023-05-21T06:47:58;102114.38;;;14.72;100.00
67099;BME280;54288;53.046;5.668;2023-05-21T06:50:23;102116.03;;;14.79;100.00
67099;BME280;54288;53.046;5.668;2023-05-21T06:52:49;102123.72;;;14.93;100.00
67099;BME280;54288;53.046;5.668;2023-05-21T06:55:15;102116.75;;;14.89;100.00
67099;BME280;54288;53.046;5.668;2023-05-21T06:58:07;102125.44;;;14.94;100.00
67099;BME280;54288;53.046;5.668;2023-05-21T07:00:34;102119.06;;;15.05;100.00
67099;BME280;54288;53.046;5.668;2023-05-21T07:03:00;102116.16;;;15.19;100.00
67099;BME280;54288;53.046;5.668;2023-05-21T07:05:25;102120.16;;;15.41;100.00
67099;BME280;54288;53.046;5.668;2023-05-21T07:07:53;102125.88;;;15.62;100.00
67099;BME280;54288;53.046;5.668;2023-05-21T07:10:19;102126.34;;;15.82;100.00
67099;BME280;54288;53.046;5.668;2023-05-21T07:12:45;102121.31;;;16.10;100.00
67099;BME280;54288;53.046;5.668;2023-05-21T07:15:11;102118.03;;;16.38;100.00
67099;BME280;54288;53.046;5.668;2023-05-21T07:17:38;102115.56;;;16.66;98.98
67099;BME280;54288;53.046;5.668;2023-05-21T07:20:04;102122.72;;;16.62;98.09
67099;BME280;54288;53.046;5.668;2023-05-21T07:22:40;102112.38;;;16.52;97.79
67099;BME280;54288;53.046;5.668;2023-05-21T07:25:09;102107.63;;;16.66;96.41
67099;BME280;54288;53.046;5.668;2023-05-21T07:27:34;102115.97;;;16.84;95.58
67099;BME280;54288;53.046;5.668;2023-05-21T07:30:00;102112.22;;;16.93;95.65
67099;BME280;54288;53.046;5.668;2023-05-21T07:32:28;102101.72;;;16.56;95.21
67099;BME280;54288;53.046;5.668;2023-05-21T07:34:54;102106.06;;;16.59;96.39
67099;BME280;54288;53.046;5.668;2023-05-21T07:37:21;102098.38;;;16.48;95.72
67099;BME280;54288;53.046;5.668;2023-05-21T07:39:48;102111.25;;;16.62;96.38
67099;BME280;54288;53.046;5.668;2023-05-21T07:42:14;102098.31;;;16.51;95.14
67099;BME280;54288;53.046;5.668;2023-05-21T07:44:39;102102.34;;;16.66;95.75
67099;BME280;54288;53.046;5.668;2023-05-21T07:47:05;102103.59;;;16.85;93.99
67099;BME280;54288;53.046;5.668;2023-05-21T07:49:31;102108.03;;;16.84;93.80
67099;BME280;54288;53.046;5.668;2023-05-21T07:51:57;102109.59;;;16.91;93.79
67099;BME280;54288;53.046;5.668;2023-05-21T07:54:23;102112.53;;;17.13;91.41
67099;BME280;54288;53.046;5.668;2023-05-21T07:56:49;102110.81;;;17.12;90.91
67099;BME280;54288;53.046;5.668;2023-05-21T07:59:35;102115.69;;;17.27;89.96
67099;BME280;54288;53.046;5.668;2023-05-21T08:02:01;102114.31;;;17.44;88.95
67099;BME280;54288;53.046;5.668;2023-05-21T08:04:27;102115.34;;;17.40;89.01
67099;BME280;54288;53.046;5.668;2023-05-21T08:06:52;102109.28;;;17.35;89.08
67099;BME280;54288;53.046;5.668;2023-05-21T08:09:18;102103.06;;;17.38;89.85
67099;BME280;54288;53.046;5.668;2023-05-21T08:11:44;102112.34;;;17.20;88.02
67099;BME280;54288;53.046;5.668;2023-05-21T08:14:10;102110.06;;;17.07;88.66
67099;BME280;54288;53.046;5.668;2023-05-21T08:16:36;102111.53;;;17.18;89.71
67099;BME280;54288;53.046;5.668;2023-05-21T08:19:03;102113.16;;;17.22;89.61
67099;BME280;54288;53.046;5.668;2023-05-21T08:21:29;102115.78;;;17.22;89.68
67099;BME280;54288;53.046;5.668;2023-05-21T08:23:55;102113.94;;;17.26;89.20
67099;BME280;54288;53.046;5.668;2023-05-21T08:26:21;102124.59;;;17.24;89.44
67099;BME280;54288;53.046;5.668;2023-05-21T08:28:47;102111.91;;;17.35;88.32
67099;BME280;54288;53.046;5.668;2023-05-21T08:31:13;102119.59;;;17.46;89.40
67099;BME280;54288;53.046;5.668;2023-05-21T08:33:49;102119.06;;;17.64;88.45
67099;BME280;54288;53.046;5.668;2023-05-21T08:36:16;102117.69;;;17.80;87.42
67099;BME280;54288;53.046;5.668;2023-05-21T08:38:50;102125.19;;;17.66;86.27
67099;BME280;54288;53.046;5.668;2023-05-21T08:41:30;102109.13;;;17.41;86.99
67099;BME280;54288;53.046;5.668;2023-05-21T08:44:00;102107.34;;;17.42;86.82
67099;BME280;54288;53.046;5.668;2023-05-21T08:46:32;102114.47;;;17.40;87.46
67099;BME280;54288;53.046;5.668;2023-05-21T08:49:01;102103.84;;;17.41;86.74
67099;BME280;54288;53.046;5.668;2023-05-21T08:51:29;102107.44;;;17.39;86.00
67099;BME280;54288;53.046;5.668;2023-05-21T08:53:56;102115.06;;;17.49;86.87
67099;BME280;54288;53.046;5.668;2023-05-21T08:59:09;102102.56;;;17.83;86.50
67099;BME280;54288;53.046;5.668;2023-05-21T09:01:37;102095.13;;;17.96;85.31
67099;BME280;54288;53.046;5.668;2023-05-21T09:04:17;102079.59;;;18.39;84.09
67099;BME280;54288;53.046;5.668;2023-05-21T09:06:43;102095.22;;;18.48;82.43
67099;BME280;54288;53.046;5.668;2023-05-21T09:09:21;102090.56;;;18.27;81.42
67099;BME280;54288;53.046;5.668;2023-05-21T09:11:49;102083.84;;;18.44;81.65
67099;BME280;54288;53.046;5.668;2023-05-21T09:14:20;102071.97;;;18.80;80.41
67099;BME280;54288;53.046;5.668;2023-05-21T09:17:01;102077.50;;;18.99;78.11
67099;BME280;54288;53.046;5.668;2023-05-21T09:19:28;102080.22;;;18.97;78.55
67099;BME280;54288;53.046;5.668;2023-05-21T09:22:01;102077.72;;;18.68;77.42
67099;BME280;54288;53.046;5.668;2023-05-21T09:24:32;102079.47;;;18.43;79.14
67099;BME280;54288;53.046;5.668;2023-05-21T09:26:58;102072.72;;;18.33;80.33
67099;BME280;54288;53.046;5.668;2023-05-21T09:29:25;102089.00;;;18.49;81.44
67099;BME280;54288;53.046;5.668;2023-05-21T09:31:51;102091.75;;;18.46;82.10
67099;BME280;54288;53.046;5.668;2023-05-21T09:34:19;102089.59;;;18.29;79.94
67099;BME280;54288;53.046;5.668;2023-05-21T09:36:49;102099.88;;;18.12;80.42
67099;BME280;54288;53.046;5.668;2023-05-21T09:39:28;102084.31;;;18.02;81.30
67099;BME280;54288;53.046;5.668;2023-05-21T09:41:56;102095.72;;;18.33;80.94
67099;BME280;54288;53.046;5.668;2023-05-21T09:44:22;102092.97;;;18.62;78.44
67099;BME280;54288;53.046;5.668;2023-05-21T09:46:49;102084.63;;;18.74;78.18
67099;BME280;54288;53.046;5.668;2023-05-21T09:49:22;102089.22;;;18.69;78.21
67099;BME280;54288;53.046;5.668;2023-05-21T09:51:57;102082.78;;;19.00;77.13
67099;BME280;54288;53.046;5.668;2023-05-21T09:54:30;102091.13;;;19.62;72.37
67099;BME280;54288;53.046;5.668;2023-05-21T09:56:59;102072.03;;;19.97;71.77
67099;BME280;54288;53.046;5.668;2023-05-21T09:59:37;102074.03;;;20.35;71.46
67099;BME280;54288;53.046;5.668;2023-05-21T10:02:19;102070.34;;;20.59;68.34
67099;BME280;54288;53.046;5.668;2023-05-21T10:04:48;102075.34;;;20.66;68.67
67099;BME280;54288;53.046;5.668;2023-05-21T10:07:18;102061.16;;;20.46;69.27
67099;BME280;54288;53.046;5.668;2023-05-21T10:09:53;102063.25;;;20.38;67.29
67099;BME280;54288;53.046;5.668;2023-05-21T10:12:24;102056.19;;;20.17;68.18
67099;BME280;54288;53.046;5.668;2023-05-21T10:14:55;102055.78;;;20.47;67.77
67099;BME280;54288;53.046;5.668;2023-05-21T10:17:27;102051.66;;;20.80;67.70
67099;BME280;54288;53.046;5.668;2023-05-21T10:20:01;102051.59;;;21.22;65.99
67099;BME280;54288;53.046;5.668;2023-05-21T10:22:28;102053.56;;;21.37;64.99
67099;BME280;54288;53.046;5.668;2023-05-21T10:25:01;102050.13;;;21.53;63.33
67099;BME280;54288;53.046;5.668;2023-05-21T10:27:31;102046.16;;;21.25;62.47
67099;BME280;54288;53.046;5.668;2023-05-21T10:29:59;102059.41;;;21.06;64.87
67099;BME280;54288;53.046;5.668;2023-05-21T10:32:27;102058.59;;;20.84;65.48
67099;BME280;54288;53.046;5.668;2023-05-21T10:34:53;102055.13;;;20.82;65.57
67099;BME280;54288;53.046;5.668;2023-05-21T10:37:22;102058.63;;;21.04;64.31
67099;BME280;54288;53.046;5.668;2023-05-21T10:39:49;102045.59;;;20.77;64.82
67099;BME280;54288;53.046;5.668;2023-05-21T11:06:25;102033.28;;;20.54;65.02
67099;BME280;54288;53.046;5.668;2023-05-21T11:09:16;102024.75;;;20.86;61.56
67099;BME280;54288;53.046;5.668;2023-05-21T11:11:51;102034.69;;;20.83;62.74
67099;BME280;54288;53.046;5.668;2023-05-21T11:17:48;102017.25;;;21.16;61.87
67099;BME280;54288;53.046;5.668;2023-05-21T11:21:17;102025.44;;;21.11;61.46
67099;BME280;54288;53.046;5.668;2023-05-21T11:23:59;102016.84;;;21.25;61.49
67099;BME280;54288;53.046;5.668;2023-05-21T11:29:31;102024.47;;;20.94;62.29
67099;BME280;54288;53.046;5.668;2023-05-21T11:32:04;102027.09;;;21.14;61.53
67099;BME280;54288;53.046;5.668;2023-05-21T11:39:48;102012.16;;;21.30;62.11
67099;BME280;54288;53.046;5.668;2023-05-21T11:45:26;102005.16;;;21.27;60.50
67099;BME280;54288;53.046;5.668;2023-05-21T11:50:48;102000.03;;;21.23;62.30
67099;BME280;54288;53.046;5.668;2023-05-21T11:53:23;101998.03;;;21.46;61.61
67099;BME280;54288;53.046;5.668;2023-05-21T11:55:51;101993.63;;;21.64;59.89
67099;BME280;54288;53.046;5.668;2023-05-21T11:58:52;102002.56;;;21.63;59.15
67099;BME280;54288;53.046;5.668;2023-05-21T12:02:04;101996.13;;;21.68;59.75
67099;BME280;54288;53.046;5.668;2023-05-21T12:05:19;102002.16;;;21.72;59.67
67099;BME280;54288;53.046;5.668;2023-05-21T12:08:50;101995.66;;;21.59;59.80
67099;BME280;54288;53.046;5.668;2023-05-21T12:14:51;101987.75;;;21.76;60.47
67099;BME280;54288;53.046;5.668;2023-05-21T12:22:41;101990.84;;;22.55;57.06
67099;BME280;54288;53.046;5.668;2023-05-21T12:25:08;101985.22;;;22.61;59.35
67099;BME280;54288;53.046;5.668;2023-05-21T12:27:45;101984.91;;;22.67;58.24
67099;BME280;54288;53.046;5.668;2023-05-21T12:30:11;101975.09;;;22.15;58.00
67099;BME280;54288;53.046;5.668;2023-05-21T12:32:44;101973.22;;;22.00;59.38
67099;BME280;54288;53.046;5.668;2023-05-21T12:35:22;101971.09;;;22.06;59.51
67099;BME280;54288;53.046;5.668;2023-05-21T12:40:50;101958.94;;;22.01;58.95
67099;BME280;54288;53.046;5.668;2023-05-21T12:43:15;101962.66;;;21.43;59.50
67099;BME280;54288;53.046;5.668;2023-05-21T12:48:19;101954.53;;;22.00;59.68
67099;BME280;54288;53.046;5.668;2023-05-21T12:50:46;101962.56;;;22.34;58.74
67099;BME280;54288;53.046;5.668;2023-05-21T12:53:11;101957.59;;;22.09;59.02
67099;BME280;54288;53.046;5.668;2023-05-21T12:55:37;101945.66;;;22.16;58.61
67099;BME280;54288;53.046;5.668;2023-05-21T12:58:05;101947.19;;;22.22;58.43
67099;BME280;54288;53.046;5.668;2023-05-21T13:00:33;101949.34;;;22.14;59.04
67099;BME280;54288;53.046;5.668;2023-05-21T13:02:59;101953.44;;;21.87;60.75
67099;BME280;54288;53.046;5.668;2023-05-21T13:08:11;101938.25;;;21.87;60.01
67099;BME280;54288;53.046;5.668;2023-05-21T13:10:38;101932.34;;;21.81;60.38
67099;BME280;54288;53.046;5.668;2023-05-21T13:13:04;101919.84;;;21.83;60.93
67099;BME280;54288;53.046;5.668;2023-05-21T13:15:30;101935.84;;;21.83;60.52
67099;BME280;54288;53.046;5.668;2023-05-21T13:20:51;101930.78;;;22.12;61.00
67099;BME280;54288;53.046;5.668;2023-05-21T13:26:58;101929.50;;;21.85;60.79
67099;BME280;54288;53.046;5.668;2023-05-21T13:32:38;101921.66;;;22.16;61.61
67099;BME280;54288;53.046;5.668;2023-05-21T13:35:15;101926.59;;;22.07;61.12
67099;BME280;54288;53.046;5.668;2023-05-21T13:37:59;101919.53;;;22.06;60.75
67099;BME280;54288;53.046;5.668;2023-05-21T13:40:40;101920.91;;;21.60;60.82
67099;BME280;54288;53.046;5.668;2023-05-21T13:43:10;101916.66;;;21.39;63.10
67099;BME280;54288;53.046;5.668;2023-05-21T13:45:36;101910.25;;;21.60;62.83
67099;BME280;54288;53.046;5.668;2023-05-21T13:48:01;101926.84;;;21.48;63.44
67099;BME280;54288;53.046;5.668;2023-05-21T13:50:27;101916.84;;;21.35;62.93
67099;BME280;54288;53.046;5.668;2023-05-21T13:52:53;101912.25;;;21.20;64.42
67099;BME280;54288;53.046;5.668;2023-05-21T13:55:19;101904.91;;;21.25;65.75
67099;BME280;54288;53.046;5.668;2023-05-21T13:57:45;101902.09;;;21.28;65.22
67099;BME280;54288;53.046;5.668;2023-05-21T14:00:11;101909.72;;;21.54;65.48
67099;BME280;54288;53.046;5.668;2023-05-21T14:02:41;101917.72;;;21.54;65.03
67099;BME280;54288;53.046;5.668;2023-05-21T14:05:06;101907.88;;;21.73;64.76
67099;BME280;54288;53.046;5.668;2023-05-21T14:07:32;101912.97;;;21.77;64.92
67099;BME280;54288;53.046;5.668;2023-05-21T14:09:58;101895.78;;;21.66;64.42
67099;BME280;54288;53.046;5.668;2023-05-21T14:12:24;101901.66;;;21.37;65.66